sensor_id;sensor_type;location;lat;lon;timestamp;P1;durP1;ratioP1;P2;durP2;ratioP2
32872;SDS011;19224;52.462;16.898;2024-03-02T00:02:23;76.30;;;43.25;;
32872;SDS011;19224;52.462;16.898;2024-03-02T00:04:53;72.12;;;41.05;;
32872;SDS011;19224;52.462;16.898;2024-03-02T00:07:23;71.20;;;42.15;;
32872;SDS011;19224;52.462;16.898;2024-03-02T00:09:53;70.60;;;41.80;;
32872;SDS011;19224;52.462;16.898;2024-03-02T00:12:24;70.15;;;41.53;;
32872;SDS011;19224;52.462;16.898;2024-03-02T00:14:55;68.12;;;40.67;;
32872;SDS011;19224;52.462;16.898;2024-03-02T00:17:25;73.75;;;42.25;;
32872;SDS011;19224;52.462;16.898;2024-03-02T00:19:55;75.72;;;42.23;;
32872;SDS011;19224;52.462;16.898;2024-03-02T00:22:25;68.52;;;40.58;;
32872;SDS011;19224;52.462;16.898;2024-03-02T00:24:56;71.72;;;40.78;;
32872;SDS011;19224;52.462;16.898;2024-03-02T00:27:27;72.75;;;41.85;;
32872;SDS011;19224;52.462;16.898;2024-03-02T00:29:57;73.47;;;42.15;;
32872;SDS011;19224;52.462;16.898;2024-03-02T00:32:30;68.97;;;41.48;;
32872;SDS011;19224;52.462;16.898;2024-03-02T00:35:01;76.95;;;41.75;;
32872;SDS011;19224;52.462;16.898;2024-03-02T00:37:32;73.67;;;41.80;;
32872;SDS011;19224;52.462;16.898;2024-03-02T00:40:04;67.75;;;40.48;;
32872;SDS011;19224;52.462;16.898;2024-03-02T00:42:38;71.10;;;41.20;;
32872;SDS011;19224;52.462;16.898;2024-03-02T00:45:08;73.80;;;42.62;;
32872;SDS011;19224;52.462;16.898;2024-03-02T00:47:40;72.60;;;42.00;;
32872;SDS011;19224;52.462;16.898;2024-03-02T00:50:10;71.35;;;41.23;;
32872;SDS011;19224;52.462;16.898;2024-03-02T00:52:42;76.82;;;43.05;;
32872;SDS011;19224;52.462;16.898;2024-03-02T00:55:15;71.22;;;41.33;;
32872;SDS011;19224;52.462;16.898;2024-03-02T00:57:49;72.35;;;42.45;;
32872;SDS011;19224;52.462;16.898;2024-03-02T01:00:20;73.55;;;42.40;;
32872;SDS011;19224;52.462;16.898;2024-03-02T01:02:51;77.53;;;43.70;;
32872;SDS011;19224;52.462;16.898;2024-03-02T01:05:22;78.78;;;44.40;;
32872;SDS011;19224;52.462;16.898;2024-03-02T01:07:52;80.50;;;43.50;;
32872;SDS011;19224;52.462;16.898;2024-03-02T01:10:22;78.50;;;43.35;;
32872;SDS011;19224;52.462;16.898;2024-03-02T01:12:54;77.47;;;44.38;;
32872;SDS011;19224;52.462;16.898;2024-03-02T01:15:24;81.90;;;43.02;;
32872;SDS011;19224;52.462;16.898;2024-03-02T01:17:55;75.85;;;43.08;;
32872;SDS011;19224;52.462;16.898;2024-03-02T01:20:25;73.83;;;43.25;;
32872;SDS011;19224;52.462;16.898;2024-03-02T01:22:55;75.45;;;42.93;;
32872;SDS011;19224;52.462;16.898;2024-03-02T01:25:25;76.57;;;43.48;;
32872;SDS011;19224;52.462;16.898;2024-03-02T01:27:55;73.85;;;42.80;;
32872;SDS011;19224;52.462;16.898;2024-03-02T01:30:26;77.17;;;42.73;;
32872;SDS011;19224;52.462;16.898;2024-03-02T01:32:56;70.17;;;41.58;;
32872;SDS011;19224;52.462;16.898;2024-03-02T01:35:27;76.05;;;42.00;;
32872;SDS011;19224;52.462;16.898;2024-03-02T01:37:58;75.52;;;42.30;;
32872;SDS011;19224;52.462;16.898;2024-03-02T01:40:29;76.77;;;43.50;;
32872;SDS011;19224;52.462;16.898;2024-03-02T01:43:06;75.62;;;42.00;;
32872;SDS011;19224;52.462;16.898;2024-03-02T01:45:36;73.95;;;41.68;;
32872;SDS011;19224;52.462;16.898;2024-03-02T01:48:09;78.83;;;42.38;;
32872;SDS011;19224;52.462;16.898;2024-03-02T01:50:39;74.67;;;42.88;;
32872;SDS011;19224;52.462;16.898;2024-03-02T01:53:11;74.97;;;42.45;;
32872;SDS011;19224;52.462;16.898;2024-03-02T01:55:41;73.62;;;40.73;;
32872;SDS011;19224;52.462;16.898;2024-03-02T01:58:11;73.85;;;41.83;;
32872;SDS011;19224;52.462;16.898;2024-03-02T02:00:42;74.72;;;41.60;;
32872;SDS011;19224;52.462;16.898;2024-03-02T02:03:12;75.97;;;41.70;;
32872;SDS011;19224;52.462;16.898;2024-03-02T02:05:43;76.28;;;42.27;;
32872;SDS011;19224;52.462;16.898;2024-03-02T02:08:15;73.70;;;42.00;;
32872;SDS011;19224;52.462;16.898;2024-03-02T02:10:45;73.17;;;41.73;;
32872;SDS011;19224;52.462;16.898;2024-03-02T02:13:15;69.37;;;40.00;;
32872;SDS011;19224;52.462;16.898;2024-03-02T02:15:46;67.03;;;39.18;;
32872;SDS011;19224;52.462;16.898;2024-03-02T02:18:16;68.33;;;39.30;;
32872;SDS011;19224;52.462;16.898;2024-03-02T02:20:46;67.25;;;38.23;;
32872;SDS011;19224;52.462;16.898;2024-03-02T02:23:17;71.37;;;38.00;;
32872;SDS011;19224;52.462;16.898;2024-03-02T02:25:47;63.38;;;37.38;;
32872;SDS011;19224;52.462;16.898;2024-03-02T02:28:17;67.72;;;37.55;;
32872;SDS011;19224;52.462;16.898;2024-03-02T02:30:48;63.30;;;36.55;;
32872;SDS011;19224;52.462;16.898;2024-03-02T02:33:21;68.95;;;36.95;;
32872;SDS011;19224;52.462;16.898;2024-03-02T02:35:53;66.70;;;36.85;;
32872;SDS011;19224;52.462;16.898;2024-03-02T02:38:23;68.17;;;36.88;;
32872;SDS011;19224;52.462;16.898;2024-03-02T02:40:53;62.48;;;36.75;;
32872;SDS011;19224;52.462;16.898;2024-03-02T02:43:24;63.50;;;36.28;;
32872;SDS011;19224;52.462;16.898;2024-03-02T02:45:54;68.52;;;36.48;;
32872;SDS011;19224;52.462;16.898;2024-03-02T02:48:24;63.68;;;35.85;;
32872;SDS011;19224;52.462;16.898;2024-03-02T02:50:54;68.60;;;35.85;;
32872;SDS011;19224;52.462;16.898;2024-03-02T02:53:25;60.03;;;35.43;;
32872;SDS011;19224;52.462;16.898;2024-03-02T02:55:55;59.80;;;34.15;;
32872;SDS011;19224;52.462;16.898;2024-03-02T02:58:25;62.60;;;34.98;;
32872;SDS011;19224;52.462;16.898;2024-03-02T03:00:56;61.85;;;34.90;;
32872;SDS011;19224;52.462;16.898;2024-03-02T03:03:26;57.78;;;33.48;;
32872;SDS011;19224;52.462;16.898;2024-03-02T03:05:57;65.85;;;34.33;;
32872;SDS011;19224;52.462;16.898;2024-03-02T03:08:27;59.33;;;33.10;;
32872;SDS011;19224;52.462;16.898;2024-03-02T03:10:58;64.45;;;33.48;;
32872;SDS011;19224;52.462;16.898;2024-03-02T03:13:28;58.42;;;31.85;;
32872;SDS011;19224;52.462;16.898;2024-03-02T03:15:59;55.98;;;31.97;;
32872;SDS011;19224;52.462;16.898;2024-03-02T03:18:30;55.88;;;31.57;;
32872;SDS011;19224;52.462;16.898;2024-03-02T03:21:01;59.55;;;32.45;;
32872;SDS011;19224;52.462;16.898;2024-03-02T03:23:32;56.90;;;32.45;;
32872;SDS011;19224;52.462;16.898;2024-03-02T03:26:02;54.55;;;32.70;;
32872;SDS011;19224;52.462;16.898;2024-03-02T03:28:33;55.63;;;31.42;;
32872;SDS011;19224;52.462;16.898;2024-03-02T03:31:04;54.50;;;31.77;;
32872;SDS011;19224;52.462;16.898;2024-03-02T03:33:34;56.35;;;30.82;;
32872;SDS011;19224;52.462;16.898;2024-03-02T03:36:05;54.50;;;31.82;;
32872;SDS011;19224;52.462;16.898;2024-03-02T03:38:35;55.05;;;31.85;;
32872;SDS011;19224;52.462;16.898;2024-03-02T03:41:05;54.60;;;31.77;;
32872;SDS011;19224;52.462;16.898;2024-03-02T03:43:36;57.88;;;31.07;;
32872;SDS011;19224;52.462;16.898;2024-03-02T03:46:06;56.68;;;30.92;;
32872;SDS011;19224;52.462;16.898;2024-03-02T03:48:36;51.95;;;31.12;;
32872;SDS011;19224;52.462;16.898;2024-03-02T03:51:09;55.48;;;30.95;;
32872;SDS011;19224;52.462;16.898;2024-03-02T03:53:39;52.13;;;29.92;;
32872;SDS011;19224;52.462;16.898;2024-03-02T03:56:10;52.33;;;30.82;;
32872;SDS011;19224;52.462;16.898;2024-03-02T03:58:40;53.78;;;31.12;;
32872;SDS011;19224;52.462;16.898;2024-03-02T04:01:10;52.60;;;29.72;;
32872;SDS011;19224;52.462;16.898;2024-03-02T04:03:42;57.53;;;30.72;;
32872;SDS011;19224;52.462;16.898;2024-03-02T04:06:12;52.95;;;30.02;;
32872;SDS011;19224;52.462;16.898;2024-03-02T04:08:44;52.73;;;30.12;;
32872;SDS011;19224;52.462;16.898;2024-03-02T04:11:15;49.83;;;29.77;;
32872;SDS011;19224;52.462;16.898;2024-03-02T04:13:45;52.23;;;29.15;;
32872;SDS011;19224;52.462;16.898;2024-03-02T04:16:15;52.55;;;29.92;;
32872;SDS011;19224;52.462;16.898;2024-03-02T04:18:45;56.23;;;30.02;;
32872;SDS011;19224;52.462;16.898;2024-03-02T04:21:16;56.58;;;30.92;;
32872;SDS011;19224;52.462;16.898;2024-03-02T04:23:46;57.17;;;31.33;;
32872;SDS011;19224;52.462;16.898;2024-03-02T04:26:16;50.33;;;29.82;;
32872;SDS011;19224;52.462;16.898;2024-03-02T04:28:48;52.70;;;30.05;;
32872;SDS011;19224;52.462;16.898;2024-03-02T04:31:18;55.12;;;29.95;;
32872;SDS011;19224;52.462;16.898;2024-03-02T04:33:50;56.50;;;31.62;;
32872;SDS011;19224;52.462;16.898;2024-03-02T04:36:20;58.55;;;30.82;;
32872;SDS011;19224;52.462;16.898;2024-03-02T04:38:51;51.00;;;29.92;;
32872;SDS011;19224;52.462;16.898;2024-03-02T04:41:23;56.80;;;30.97;;
32872;SDS011;19224;52.462;16.898;2024-03-02T04:43:53;51.33;;;30.20;;
32872;SDS011;19224;52.462;16.898;2024-03-02T04:46:24;53.35;;;30.45;;
32872;SDS011;19224;52.462;16.898;2024-03-02T04:48:54;52.65;;;29.70;;
32872;SDS011;19224;52.462;16.898;2024-03-02T04:51:24;52.78;;;29.80;;
32872;SDS011;19224;52.462;16.898;2024-03-02T04:53:55;52.60;;;29.07;;
32872;SDS011;19224;52.462;16.898;2024-03-02T04:56:25;53.10;;;29.37;;
32872;SDS011;19224;52.462;16.898;2024-03-02T04:58:57;55.00;;;30.32;;
32872;SDS011;19224;52.462;16.898;2024-03-02T05:01:28;51.63;;;29.50;;
32872;SDS011;19224;52.462;16.898;2024-03-02T05:03:58;49.42;;;29.48;;
32872;SDS011;19224;52.462;16.898;2024-03-02T05:06:28;56.58;;;30.50;;
32872;SDS011;19224;52.462;16.898;2024-03-02T05:08:59;53.95;;;30.08;;
32872;SDS011;19224;52.462;16.898;2024-03-02T05:11:29;48.50;;;27.93;;
32872;SDS011;19224;52.462;16.898;2024-03-02T05:14:01;47.98;;;28.32;;
32872;SDS011;19224;52.462;16.898;2024-03-02T05:16:35;51.05;;;28.80;;
32872;SDS011;19224;52.462;16.898;2024-03-02T05:19:09;54.90;;;28.85;;
32872;SDS011;19224;52.462;16.898;2024-03-02T05:21:39;54.45;;;29.90;;
32872;SDS011;19224;52.462;16.898;2024-03-02T05:24:09;52.25;;;28.55;;
32872;SDS011;19224;52.462;16.898;2024-03-02T05:26:39;50.28;;;28.15;;
32872;SDS011;19224;52.462;16.898;2024-03-02T05:29:10;51.28;;;29.42;;
32872;SDS011;19224;52.462;16.898;2024-03-02T05:31:40;54.10;;;29.55;;
32872;SDS011;19224;52.462;16.898;2024-03-02T05:34:11;50.75;;;28.77;;
32872;SDS011;19224;52.462;16.898;2024-03-02T05:36:42;52.55;;;29.18;;
32872;SDS011;19224;52.462;16.898;2024-03-02T05:39:13;56.80;;;28.87;;
32872;SDS011;19224;52.462;16.898;2024-03-02T05:41:49;52.13;;;29.40;;
32872;SDS011;19224;52.462;16.898;2024-03-02T05:44:20;54.20;;;29.72;;
32872;SDS011;19224;52.462;16.898;2024-03-02T05:46:50;52.20;;;29.27;;
32872;SDS011;19224;52.462;16.898;2024-03-02T05:49:21;51.05;;;27.87;;
32872;SDS011;19224;52.462;16.898;2024-03-02T05:51:51;51.18;;;29.18;;
32872;SDS011;19224;52.462;16.898;2024-03-02T05:54:21;53.38;;;27.65;;
32872;SDS011;19224;52.462;16.898;2024-03-02T05:56:52;51.98;;;29.67;;
32872;SDS011;19224;52.462;16.898;2024-03-02T05:59:22;48.25;;;28.65;;
32872;SDS011;19224;52.462;16.898;2024-03-02T06:01:52;52.65;;;28.55;;
32872;SDS011;19224;52.462;16.898;2024-03-02T06:04:23;50.20;;;28.75;;
32872;SDS011;19224;52.462;16.898;2024-03-02T06:06:53;53.45;;;30.12;;
32872;SDS011;19224;52.462;16.898;2024-03-02T06:09:23;52.90;;;28.15;;
32872;SDS011;19224;52.462;16.898;2024-03-02T06:11:54;51.25;;;28.55;;
32872;SDS011;19224;52.462;16.898;2024-03-02T06:14:24;52.73;;;29.25;;
32872;SDS011;19224;52.462;16.898;2024-03-02T06:16:55;49.93;;;28.70;;
32872;SDS011;19224;52.462;16.898;2024-03-02T06:19:26;48.25;;;27.48;;
32872;SDS011;19224;52.462;16.898;2024-03-02T06:21:57;48.73;;;28.23;;
32872;SDS011;19224;52.462;16.898;2024-03-02T06:24:27;53.00;;;28.95;;
32872;SDS011;19224;52.462;16.898;2024-03-02T06:26:57;52.60;;;28.77;;
32872;SDS011;19224;52.462;16.898;2024-03-02T06:29:32;51.23;;;28.47;;
32872;SDS011;19224;52.462;16.898;2024-03-02T06:32:02;51.68;;;29.07;;
32872;SDS011;19224;52.462;16.898;2024-03-02T06:34:33;44.65;;;27.17;;
32872;SDS011;19224;52.462;16.898;2024-03-02T06:37:03;46.65;;;28.05;;
32872;SDS011;19224;52.462;16.898;2024-03-02T06:39:33;48.45;;;27.62;;
32872;SDS011;19224;52.462;16.898;2024-03-02T06:42:04;50.35;;;28.42;;
32872;SDS011;19224;52.462;16.898;2024-03-02T06:44:34;48.60;;;28.65;;
32872;SDS011;19224;52.462;16.898;2024-03-02T06:47:04;47.30;;;27.45;;
32872;SDS011;19224;52.462;16.898;2024-03-02T06:49:34;48.48;;;27.30;;
32872;SDS011;19224;52.462;16.898;2024-03-02T06:52:05;52.38;;;28.38;;
32872;SDS011;19224;52.462;16.898;2024-03-02T06:54:36;45.78;;;26.93;;
32872;SDS011;19224;52.462;16.898;2024-03-02T06:57:08;47.25;;;27.10;;
32872;SDS011;19224;52.462;16.898;2024-03-02T06:59:38;45.20;;;26.95;;
32872;SDS011;19224;52.462;16.898;2024-03-02T07:02:09;48.87;;;26.80;;
32872;SDS011;19224;52.462;16.898;2024-03-02T07:04:40;48.48;;;27.98;;
32872;SDS011;19224;52.462;16.898;2024-03-02T07:07:10;47.27;;;27.20;;
32872;SDS011;19224;52.462;16.898;2024-03-02T07:09:40;48.30;;;27.17;;
32872;SDS011;19224;52.462;16.898;2024-03-02T07:12:10;47.03;;;27.77;;
32872;SDS011;19224;52.462;16.898;2024-03-02T07:14:41;44.93;;;27.52;;
32872;SDS011;19224;52.462;16.898;2024-03-02T07:17:29;45.00;;;27.13;;
32872;SDS011;19224;52.462;16.898;2024-03-02T07:20:03;48.75;;;27.42;;
32872;SDS011;19224;52.462;16.898;2024-03-02T07:22:34;43.90;;;27.13;;
32872;SDS011;19224;52.462;16.898;2024-03-02T07:25:05;46.50;;;26.50;;
32872;SDS011;19224;52.462;16.898;2024-03-02T07:27:36;46.20;;;27.30;;
32872;SDS011;19224;52.462;16.898;2024-03-02T07:30:07;51.63;;;27.90;;
32872;SDS011;19224;52.462;16.898;2024-03-02T07:32:38;48.40;;;27.58;;
32872;SDS011;19224;52.462;16.898;2024-03-02T07:35:09;41.85;;;26.73;;
32872;SDS011;19224;52.462;16.898;2024-03-02T07:37:43;46.23;;;26.75;;
32872;SDS011;19224;52.462;16.898;2024-03-02T07:40:15;48.42;;;26.90;;
32872;SDS011;19224;52.462;16.898;2024-03-02T07:42:45;49.20;;;28.17;;
32872;SDS011;19224;52.462;16.898;2024-03-02T07:45:15;46.58;;;26.50;;
32872;SDS011;19224;52.462;16.898;2024-03-02T07:47:46;48.90;;;28.52;;
32872;SDS011;19224;52.462;16.898;2024-03-02T07:50:19;44.65;;;26.75;;
32872;SDS011;19224;52.462;16.898;2024-03-02T07:52:49;46.33;;;27.52;;
32872;SDS011;19224;52.462;16.898;2024-03-02T07:55:19;48.00;;;26.52;;
32872;SDS011;19224;52.462;16.898;2024-03-02T07:57:51;44.77;;;27.55;;
32872;SDS011;19224;52.462;16.898;2024-03-02T08:00:22;45.78;;;27.52;;
32872;SDS011;19224;52.462;16.898;2024-03-02T08:02:53;48.02;;;27.65;;
32872;SDS011;19224;52.462;16.898;2024-03-02T08:05:27;42.83;;;26.68;;
32872;SDS011;19224;52.462;16.898;2024-03-02T08:07:58;45.38;;;26.20;;
32872;SDS011;19224;52.462;16.898;2024-03-02T08:10:28;45.40;;;26.73;;
32872;SDS011;19224;52.462;16.898;2024-03-02T08:13:01;43.35;;;26.23;;
32872;SDS011;19224;52.462;16.898;2024-03-02T08:15:31;45.17;;;28.15;;
32872;SDS011;19224;52.462;16.898;2024-03-02T08:18:01;50.43;;;27.73;;
32872;SDS011;19224;52.462;16.898;2024-03-02T08:20:32;45.92;;;26.77;;
32872;SDS011;19224;52.462;16.898;2024-03-02T08:23:03;51.23;;;27.35;;
32872;SDS011;19224;52.462;16.898;2024-03-02T08:25:33;48.48;;;27.25;;
32872;SDS011;19224;52.462;16.898;2024-03-02T08:28:05;46.85;;;27.70;;
32872;SDS011;19224;52.462;16.898;2024-03-02T08:30:37;47.17;;;27.32;;
32872;SDS011;19224;52.462;16.898;2024-03-02T08:33:07;48.48;;;27.37;;
32872;SDS011;19224;52.462;16.898;2024-03-02T08:35:37;43.80;;;27.00;;
32872;SDS011;19224;52.462;16.898;2024-03-02T08:38:07;41.77;;;26.30;;
32872;SDS011;19224;52.462;16.898;2024-03-02T08:40:39;43.63;;;26.30;;
32872;SDS011;19224;52.462;16.898;2024-03-02T08:43:10;46.50;;;27.10;;
32872;SDS011;19224;52.462;16.898;2024-03-02T08:45:40;42.20;;;25.35;;
32872;SDS011;19224;52.462;16.898;2024-03-02T08:48:11;45.63;;;27.05;;
32872;SDS011;19224;52.462;16.898;2024-03-02T08:50:41;46.80;;;26.17;;
32872;SDS011;19224;52.462;16.898;2024-03-02T08:53:11;45.78;;;27.42;;
32872;SDS011;19224;52.462;16.898;2024-03-02T08:55:49;44.83;;;27.37;;
32872;SDS011;19224;52.462;16.898;2024-03-02T08:58:16;47.65;;;28.92;;
32872;SDS011;19224;52.462;16.898;2024-03-02T09:00:48;45.78;;;26.68;;
32872;SDS011;19224;52.462;16.898;2024-03-02T09:03:18;46.90;;;26.45;;
32872;SDS011;19224;52.462;16.898;2024-03-02T09:05:48;47.55;;;26.37;;
32872;SDS011;19224;52.462;16.898;2024-03-02T09:08:19;45.85;;;26.30;;
32872;SDS011;19224;52.462;16.898;2024-03-02T09:10:49;47.83;;;27.15;;
32872;SDS011;19224;52.462;16.898;2024-03-02T09:13:19;47.17;;;26.68;;
32872;SDS011;19224;52.462;16.898;2024-03-02T09:15:50;43.65;;;25.82;;
32872;SDS011;19224;52.462;16.898;2024-03-02T09:18:21;43.13;;;26.30;;
32872;SDS011;19224;52.462;16.898;2024-03-02T09:20:51;45.43;;;25.95;;
32872;SDS011;19224;52.462;16.898;2024-03-02T09:23:21;47.30;;;26.87;;
32872;SDS011;19224;52.462;16.898;2024-03-02T09:25:52;46.77;;;26.80;;
32872;SDS011;19224;52.462;16.898;2024-03-02T09:28:22;42.45;;;26.25;;
32872;SDS011;19224;52.462;16.898;2024-03-02T09:30:53;45.70;;;26.30;;
32872;SDS011;19224;52.462;16.898;2024-03-02T09:33:24;47.75;;;26.62;;
32872;SDS011;19224;52.462;16.898;2024-03-02T09:35:55;60.52;;;34.00;;
32872;SDS011;19224;52.462;16.898;2024-03-02T09:38:27;53.00;;;29.65;;
32872;SDS011;19224;52.462;16.898;2024-03-02T09:40:57;46.88;;;25.95;;
32872;SDS011;19224;52.462;16.898;2024-03-02T09:43:29;42.33;;;25.20;;
32872;SDS011;19224;52.462;16.898;2024-03-02T09:45:59;51.02;;;25.88;;
32872;SDS011;19224;52.462;16.898;2024-03-02T09:48:31;45.30;;;26.00;;
32872;SDS011;19224;52.462;16.898;2024-03-02T09:51:01;41.00;;;24.35;;
32872;SDS011;19224;52.462;16.898;2024-03-02T09:53:33;45.23;;;26.00;;
32872;SDS011;19224;52.462;16.898;2024-03-02T09:56:04;43.65;;;24.25;;
32872;SDS011;19224;52.462;16.898;2024-03-02T09:58:35;40.95;;;24.92;;
32872;SDS011;19224;52.462;16.898;2024-03-02T10:01:05;35.83;;;23.83;;
32872;SDS011;19224;52.462;16.898;2024-03-02T10:03:38;40.85;;;25.10;;
32872;SDS011;19224;52.462;16.898;2024-03-02T10:08:53;43.42;;;24.52;;
32872;SDS011;19224;52.462;16.898;2024-03-02T10:11:32;40.85;;;24.82;;
32872;SDS011;19224;52.462;16.898;2024-03-02T10:14:11;47.93;;;25.30;;
32872;SDS011;19224;52.462;16.898;2024-03-02T10:16:44;42.40;;;24.00;;
32872;SDS011;19224;52.462;16.898;2024-03-02T10:21:51;43.60;;;24.92;;
32872;SDS011;19224;52.462;16.898;2024-03-02T10:24:25;43.17;;;24.20;;
32872;SDS011;19224;52.462;16.898;2024-03-02T10:26:55;44.38;;;24.70;;
32872;SDS011;19224;52.462;16.898;2024-03-02T10:29:27;43.48;;;24.27;;
32872;SDS011;19224;52.462;16.898;2024-03-02T10:32:01;38.65;;;24.27;;
32872;SDS011;19224;52.462;16.898;2024-03-02T10:34:31;42.60;;;24.45;;
32872;SDS011;19224;52.462;16.898;2024-03-02T10:37:03;53.90;;;24.43;;
32872;SDS011;19224;52.462;16.898;2024-03-02T10:39:35;39.13;;;24.77;;
32872;SDS011;19224;52.462;16.898;2024-03-02T10:42:11;38.90;;;22.85;;
32872;SDS011;19224;52.462;16.898;2024-03-02T10:44:43;37.65;;;23.98;;
32872;SDS011;19224;52.462;16.898;2024-03-02T10:47:13;40.70;;;23.30;;
32872;SDS011;19224;52.462;16.898;2024-03-02T10:49:46;38.35;;;23.73;;
32872;SDS011;19224;52.462;16.898;2024-03-02T10:52:18;40.55;;;25.88;;
32872;SDS011;19224;52.462;16.898;2024-03-02T10:54:50;41.68;;;26.02;;
32872;SDS011;19224;52.462;16.898;2024-03-02T10:57:21;46.90;;;24.80;;
32872;SDS011;19224;52.462;16.898;2024-03-02T10:59:55;40.63;;;23.87;;
32872;SDS011;19224;52.462;16.898;2024-03-02T11:02:31;35.08;;;23.42;;
32872;SDS011;19224;52.462;16.898;2024-03-02T11:05:04;37.35;;;23.85;;
32872;SDS011;19224;52.462;16.898;2024-03-02T11:07:37;36.38;;;22.42;;
32872;SDS011;19224;52.462;16.898;2024-03-02T11:10:10;35.80;;;23.57;;
32872;SDS011;19224;52.462;16.898;2024-03-02T11:12:48;37.00;;;24.60;;
32872;SDS011;19224;52.462;16.898;2024-03-02T11:15:28;47.15;;;23.85;;
32872;SDS011;19224;52.462;16.898;2024-03-02T11:17:59;46.85;;;24.37;;
32872;SDS011;19224;52.462;16.898;2024-03-02T11:20:32;43.10;;;24.85;;
32872;SDS011;19224;52.462;16.898;2024-03-02T11:23:07;52.27;;;25.32;;
32872;SDS011;19224;52.462;16.898;2024-03-02T11:25:38;46.33;;;24.90;;
32872;SDS011;19224;52.462;16.898;2024-03-02T11:28:08;39.63;;;24.98;;
32872;SDS011;19224;52.462;16.898;2024-03-02T11:30:48;44.70;;;24.10;;
32872;SDS011;19224;52.462;16.898;2024-03-02T11:33:18;38.85;;;25.10;;
32872;SDS011;19224;52.462;16.898;2024-03-02T11:35:54;44.00;;;25.17;;
32872;SDS011;19224;52.462;16.898;2024-03-02T11:38:32;49.18;;;26.12;;
32872;SDS011;19224;52.462;16.898;2024-03-02T11:41:07;43.87;;;26.65;;
32872;SDS011;19224;52.462;16.898;2024-03-02T11:43:40;40.80;;;25.55;;
32872;SDS011;19224;52.462;16.898;2024-03-02T11:46:12;39.25;;;25.32;;
32872;SDS011;19224;52.462;16.898;2024-03-02T11:48:51;43.17;;;25.95;;
32872;SDS011;19224;52.462;16.898;2024-03-02T11:51:23;45.00;;;26.17;;
32872;SDS011;19224;52.462;16.898;2024-03-02T11:53:54;50.50;;;32.80;;
32872;SDS011;19224;52.462;16.898;2024-03-02T11:56:27;43.33;;;27.10;;
32872;SDS011;19224;52.462;16.898;2024-03-02T11:59:00;44.60;;;26.42;;
32872;SDS011;19224;52.462;16.898;2024-03-02T12:01:31;45.08;;;26.30;;
32872;SDS011;19224;52.462;16.898;2024-03-02T12:04:05;47.38;;;26.55;;
32872;SDS011;19224;52.462;16.898;2024-03-02T12:06:36;38.75;;;25.23;;
32872;SDS011;19224;52.462;16.898;2024-03-02T12:09:09;42.75;;;25.08;;
32872;SDS011;19224;52.462;16.898;2024-03-02T12:11:42;44.15;;;25.88;;
32872;SDS011;19224;52.462;16.898;2024-03-02T12:14:13;45.70;;;25.52;;
32872;SDS011;19224;52.462;16.898;2024-03-02T12:16:45;44.98;;;25.17;;
32872;SDS011;19224;52.462;16.898;2024-03-02T12:19:16;45.92;;;27.48;;
32872;SDS011;19224;52.462;16.898;2024-03-02T12:21:48;48.02;;;25.00;;
32872;SDS011;19224;52.462;16.898;2024-03-02T12:24:18;39.65;;;26.25;;
32872;SDS011;19224;52.462;16.898;2024-03-02T12:26:50;45.23;;;28.35;;
32872;SDS011;19224;52.462;16.898;2024-03-02T12:29:22;41.92;;;28.65;;
32872;SDS011;19224;52.462;16.898;2024-03-02T12:31:53;41.02;;;26.45;;
32872;SDS011;19224;52.462;16.898;2024-03-02T12:34:23;48.05;;;26.00;;
32872;SDS011;19224;52.462;16.898;2024-03-02T12:36:54;40.10;;;24.67;;
32872;SDS011;19224;52.462;16.898;2024-03-02T12:39:25;43.73;;;26.42;;
32872;SDS011;19224;52.462;16.898;2024-03-02T12:41:56;44.55;;;25.80;;
32872;SDS011;19224;52.462;16.898;2024-03-02T12:44:32;39.20;;;24.72;;
32872;SDS011;19224;52.462;16.898;2024-03-02T12:46:59;40.67;;;24.50;;
32872;SDS011;19224;52.462;16.898;2024-03-02T12:49:31;35.23;;;23.30;;
32872;SDS011;19224;52.462;16.898;2024-03-02T12:52:03;39.65;;;25.12;;
32872;SDS011;19224;52.462;16.898;2024-03-02T12:54:34;38.90;;;25.97;;
32872;SDS011;19224;52.462;16.898;2024-03-02T12:57:05;39.35;;;25.23;;
32872;SDS011;19224;52.462;16.898;2024-03-02T12:59:35;43.78;;;24.57;;
32872;SDS011;19224;52.462;16.898;2024-03-02T13:02:05;48.58;;;30.32;;
32872;SDS011;19224;52.462;16.898;2024-03-02T13:04:38;40.80;;;26.12;;
32872;SDS011;19224;52.462;16.898;2024-03-02T13:07:09;41.60;;;26.07;;
32872;SDS011;19224;52.462;16.898;2024-03-02T13:09:41;43.87;;;25.17;;
32872;SDS011;19224;52.462;16.898;2024-03-02T13:12:14;41.95;;;26.00;;
32872;SDS011;19224;52.462;16.898;2024-03-02T13:14:49;40.83;;;25.00;;
32872;SDS011;19224;52.462;16.898;2024-03-02T13:17:29;46.85;;;25.85;;
32872;SDS011;19224;52.462;16.898;2024-03-02T13:20:01;39.98;;;25.23;;
32872;SDS011;19224;52.462;16.898;2024-03-02T13:22:36;37.58;;;24.05;;
32872;SDS011;19224;52.462;16.898;2024-03-02T13:25:06;35.73;;;24.77;;
32872;SDS011;19224;52.462;16.898;2024-03-02T13:27:38;37.55;;;23.57;;
32872;SDS011;19224;52.462;16.898;2024-03-02T13:30:09;38.25;;;23.00;;
32872;SDS011;19224;52.462;16.898;2024-03-02T13:32:39;36.50;;;24.27;;
32872;SDS011;19224;52.462;16.898;2024-03-02T13:35:10;34.23;;;23.27;;
32872;SDS011;19224;52.462;16.898;2024-03-02T13:37:40;34.10;;;22.62;;
32872;SDS011;19224;52.462;16.898;2024-03-02T13:40:11;39.03;;;24.37;;
32872;SDS011;19224;52.462;16.898;2024-03-02T13:42:43;40.48;;;23.38;;
32872;SDS011;19224;52.462;16.898;2024-03-02T13:45:14;38.28;;;23.27;;
32872;SDS011;19224;52.462;16.898;2024-03-02T13:47:45;40.40;;;23.52;;
32872;SDS011;19224;52.462;16.898;2024-03-02T13:50:15;35.95;;;23.60;;
32872;SDS011;19224;52.462;16.898;2024-03-02T13:52:46;35.80;;;21.57;;
32872;SDS011;19224;52.462;16.898;2024-03-02T13:55:16;32.73;;;22.70;;
32872;SDS011;19224;52.462;16.898;2024-03-02T13:57:46;33.95;;;22.37;;
32872;SDS011;19224;52.462;16.898;2024-03-02T14:00:17;33.90;;;21.52;;
32872;SDS011;19224;52.462;16.898;2024-03-02T14:02:48;34.27;;;22.27;;
32872;SDS011;19224;52.462;16.898;2024-03-02T14:05:18;36.35;;;22.50;;
32872;SDS011;19224;52.462;16.898;2024-03-02T14:07:49;40.33;;;21.68;;
32872;SDS011;19224;52.462;16.898;2024-03-02T14:10:19;39.53;;;22.90;;
32872;SDS011;19224;52.462;16.898;2024-03-02T14:12:52;31.05;;;21.45;;
32872;SDS011;19224;52.462;16.898;2024-03-02T14:15:23;33.70;;;22.00;;
32872;SDS011;19224;52.462;16.898;2024-03-02T14:17:53;38.85;;;21.30;;
32872;SDS011;19224;52.462;16.898;2024-03-02T14:20:23;34.92;;;22.48;;
32872;SDS011;19224;52.462;16.898;2024-03-02T14:22:54;33.53;;;21.05;;
32872;SDS011;19224;52.462;16.898;2024-03-02T14:25:24;33.38;;;21.02;;
32872;SDS011;19224;52.462;16.898;2024-03-02T14:27:54;30.20;;;20.80;;
32872;SDS011;19224;52.462;16.898;2024-03-02T14:30:25;31.93;;;21.35;;
32872;SDS011;19224;52.462;16.898;2024-03-02T14:32:55;34.03;;;20.75;;
32872;SDS011;19224;52.462;16.898;2024-03-02T14:35:26;37.50;;;21.15;;
32872;SDS011;19224;52.462;16.898;2024-03-02T14:37:56;32.08;;;21.48;;